Terminal Aerodrome Forecast
Issued by NWS Cleveland, OH

Home | Current Version | Previous Version | Graphics & Text | Print | Product List | Glossary On
Versions: 1 2 3 4 5 6 7 8 9 10 11 12 13 14
000
FTUS41 KCLE 211006 AAB
TAFMFD
TAF AMD
KMFD 211006Z 2110/2206 26008KT P6SM BKN008 OVC040
      TEMPO 2110/2112 SCT008 BKN012
     FM211200 27012KT P6SM SCT012 BKN040
     FM211600 27012G20KT P6SM SCT040
     FM212300 27010KT P6SM BKN025 OVC040=

USA.gov is the U.S. government's official web portal to all federal, state and local government web resources and services.